KPOE/POE METAR and TAF weather

Enter ICAO airport designator
Station Type Date Time Source
KPOE METAR 2019/08/24 22:47 UTC NOAA

KPOE 242247Z AUTO 12010KT 4SM -RA BR BKN007 BKN039 OVC049 25/24 A2989 RMK AO2 LTG DSNT NE RAB17E40RAB47 CIG 007V010 BKN007 V SCT SLP121


Station Type Date Time Source
KPOE Decoded METAR 2019/08/24 22:47 UTC NOAA

Station name not available
Aug 24, 2019 - 06:47 PM EDT / 2019.08.24 2247 UTC
Wind: from the ESE (120 degrees) at 12 MPH (10 KT):0
Visibility: 4 mile(s):0
Sky conditions: overcast
Weather: light rain; mist; Lightning observed
Temperature: 77 F (25 C)
Dew Point: 75 F (24 C)
Relative Humidity: 94%
Pressure (altimeter): 29.89 in. Hg (1012 hPa)
ob: KPOE 242247Z AUTO 12010KT 4SM -RA BR BKN007 BKN039 OVC049 25/24 A2989 RMK AO2 LTG DSNT NE RAB17E40RAB47 CIG 007V010 BKN007 V SCT SLP121
cycle: 23

Station Type Date Time Source
KPOE TAF 2019/08/24 19:57 UTC NOAA

TAF
AMD KPOE 241935Z 2419/2522 13009KT 9999 FEW020 SCT030 BKN035 BKN060 QNH2992INS
TEMPO 2419/2421 13015G25KT 6000 -TSRA BKN030CB
BECMG 2422/2423 16009KT 9999 SCT015 OVC025 QNH2991INS
BECMG 2505/2506 16009KT 8000 -SHRA SCT007 OVC015 QNH2990INS
TEMPO 2509/2520 16010G15KT 6000 -TSRA OVC015CB
BECMG 2521/2522 15009KT 9999 NSW SCT015 BKN030 OVC045 QNH2981INS TX30/2420Z TN24/2509Z

Example: see airport list